Time;durP1;ratioP1;P1;durP2;ratioP2;P2;SDS_P1;SDS_P2;PMS_P1;PMS_P2;Temp;Humidity;BMP_temperature;BMP_pressure;BME280_temperature;BME280_humidity;BME280_pressure;Samples;Min_cycle;Max_cycle;Signal;HPM_P1;HPM_P2
2022/10/27 00:00:41;;;;;;;2.22;1.20;;;15.80;99.90;;;;;;5033736;28;20174;-72
2022/10/27 00:03:09;;;;;;;3.78;1.40;;;15.90;99.90;;;;;;5043044;28;20180;-72
2022/10/27 00:05:35;;;;;;;1.70;1.20;;;15.80;99.90;;;;;;5039942;28;20190;-72
2022/10/27 00:08:00;;;;;;;2.42;1.50;;;15.80;99.90;;;;;;5031195;28;20182;-72
2022/10/27 00:10:26;;;;;;;3.53;1.30;;;15.80;99.90;;;;;;5047506;28;20197;-72
2022/10/27 00:12:54;;;;;;;2.80;1.50;;;15.80;99.90;;;;;;5053497;28;20182;-72
2022/10/27 00:15:22;;;;;;;2.03;1.30;;;15.80;99.90;;;;;;5034472;28;20182;-73
2022/10/27 00:17:50;;;;;;;1.58;1.30;;;15.80;99.90;;;;;;5029971;28;20194;-73
2022/10/27 00:20:16;;;;;;;3.20;1.30;;;15.70;99.90;;;;;;5033020;28;20212;-72
2022/10/27 00:22:41;;;;;;;5.80;1.33;;;15.70;99.90;;;;;;5040087;28;20262;-73
2022/10/27 00:25:07;;;;;;;2.55;1.48;;;15.70;99.90;;;;;;5032341;28;20336;-71
2022/10/27 00:27:33;;;;;;;2.22;1.50;;;15.70;99.90;;;;;;5037131;28;20190;-73
2022/10/27 00:29:58;;;;;;;1.88;1.27;;;15.70;99.90;;;;;;5053027;28;20248;-75
2022/10/27 00:32:29;;;;;;;1.58;1.20;;;15.70;99.90;;;;;;5036908;28;20170;-73
2022/10/27 00:34:54;;;;;;;5.07;1.20;;;15.60;99.90;;;;;;5037392;28;20178;-73
2022/10/27 00:37:20;;;;;;;3.50;1.10;;;15.60;99.90;;;;;;5053676;28;20209;-72
2022/10/27 00:39:46;;;;;;;2.58;1.30;;;15.60;99.90;;;;;;5053411;28;20212;-73
2022/10/27 00:42:14;;;;;;;2.10;1.20;;;15.60;99.90;;;;;;5048152;28;20236;-73
2022/10/27 00:44:45;;;;;;;3.63;1.40;;;15.60;99.90;;;;;;5045840;28;20216;-73
2022/10/27 00:47:12;;;;;;;1.85;1.30;;;15.60;99.90;;;;;;5045928;28;20241;-73
2022/10/27 00:49:44;;;;;;;2.17;1.20;;;15.50;99.90;;;;;;5058678;28;20182;-73
2022/10/27 00:52:19;;;;;;;3.75;1.30;;;15.50;99.90;;;;;;5038436;28;20185;-72
2022/10/27 00:54:47;;;;;;;2.65;1.30;;;15.50;99.90;;;;;;5027264;28;20202;-72
2022/10/27 00:57:14;;;;;;;1.63;1.23;;;15.50;99.90;;;;;;5039442;28;20221;-72
2022/10/27 00:59:40;;;;;;;4.10;1.23;;;15.40;99.90;;;;;;5031311;28;20198;-73
2022/10/27 01:02:09;;;;;;;1.83;1.13;;;15.40;99.90;;;;;;5027509;28;20216;-72
2022/10/27 01:04:38;;;;;;;2.83;1.58;;;15.40;99.90;;;;;;5039687;28;20255;-72
2022/10/27 01:07:06;;;;;;;1.33;1.10;;;15.40;99.90;;;;;;5040793;28;20186;-72
2022/10/27 01:09:32;;;;;;;2.28;1.25;;;15.40;99.90;;;;;;5037766;28;20193;-73
2022/10/27 01:12:00;;;;;;;2.45;1.30;;;15.40;99.90;;;;;;5040209;28;20179;-72
2022/10/27 01:14:28;;;;;;;1.90;1.45;;;15.40;99.90;;;;;;5036166;28;20174;-72
2022/10/27 01:17:15;;;;;;;4.63;1.83;;;15.40;99.90;;;;;;5038381;28;20202;-72
2022/10/27 01:20:03;;;;;;;3.00;1.30;;;15.30;99.90;;;;;;5031788;28;20174;-73
2022/10/27 01:22:57;;;;;;;2.58;1.20;;;15.30;99.90;;;;;;5035803;28;20209;-73
2022/10/27 01:25:40;;;;;;;3.20;1.60;;;15.30;99.90;;;;;;5031737;28;20244;-72
2022/10/27 01:28:48;;;;;;;3.30;1.40;;;15.30;99.90;;;;;;5028514;28;20275;-73
2022/10/27 01:31:30;;;;;;;3.85;1.30;;;15.20;99.90;;;;;;5020748;28;20186;-72
2022/10/27 01:34:28;;;;;;;1.77;1.30;;;15.20;99.90;;;;;;5029219;28;20170;-73
2022/10/27 01:37:04;;;;;;;3.33;1.30;;;15.20;99.90;;;;;;5026743;28;20214;-73
2022/10/27 01:39:39;;;;;;;2.80;1.30;;;15.10;99.90;;;;;;5036334;28;21866;-73
2022/10/27 01:42:15;;;;;;;1.75;1.20;;;15.10;99.90;;;;;;5032349;28;20180;-73
2022/10/27 01:44:46;;;;;;;2.80;1.20;;;15.10;99.90;;;;;;5030749;28;20198;-72
2022/10/27 01:47:18;;;;;;;2.30;1.20;;;15.10;99.90;;;;;;5045530;28;20185;-72
2022/10/27 01:49:43;;;;;;;2.05;1.38;;;15.00;99.90;;;;;;5037519;28;20178;-72
2022/10/27 01:52:50;;;;;;;2.60;1.73;;;15.00;99.90;;;;;;5053494;28;20266;-72
2022/10/27 01:55:25;;;;;;;1.67;1.30;;;15.00;99.90;;;;;;5038093;28;20178;-73
2022/10/27 01:58:12;;;;;;;2.47;1.52;;;14.90;99.90;;;;;;5039676;28;20232;-72
2022/10/27 02:00:59;;;;;;;2.45;1.35;;;14.90;99.90;;;;;;5039101;28;20174;-72
2022/10/27 02:03:57;;;;;;;2.10;1.08;;;14.80;99.90;;;;;;5061210;28;20174;-72
2022/10/27 02:06:43;;;;;;;3.03;1.27;;;14.80;99.90;;;;;;5036169;28;20252;-73
2022/10/27 02:09:20;;;;;;;2.17;1.30;;;14.80;99.90;;;;;;5027310;28;20186;-73
2022/10/27 02:11:51;;;;;;;2.65;1.50;;;14.70;99.90;;;;;;5045617;28;20194;-72
2022/10/27 02:14:18;;;;;;;2.30;1.48;;;14.70;99.90;;;;;;5036022;28;20197;-72
2022/10/27 02:16:48;;;;;;;1.80;1.30;;;14.70;99.90;;;;;;5035669;28;20174;-72
2022/10/27 02:19:34;;;;;;;3.35;1.85;;;14.60;99.90;;;;;;5028226;28;20220;-72
2022/10/27 02:22:01;;;;;;;2.08;1.33;;;14.60;99.90;;;;;;5044893;28;20213;-72
2022/10/27 02:24:27;;;;;;;2.40;1.33;;;14.60;99.90;;;;;;5035034;28;20174;-72
2022/10/27 02:27:10;;;;;;;1.95;1.42;;;14.50;99.90;;;;;;5044351;28;20216;-71
2022/10/27 02:29:46;;;;;;;2.60;1.50;;;14.50;99.90;;;;;;5031361;28;20186;-71
2022/10/27 02:32:16;;;;;;;2.05;1.42;;;14.50;99.90;;;;;;5032521;28;20269;-72
2022/10/27 02:34:43;;;;;;;2.75;1.48;;;14.50;99.90;;;;;;5032267;28;20178;-72
2022/10/27 02:37:15;;;;;;;2.10;1.40;;;14.50;99.90;;;;;;5032035;28;20204;-74
2022/10/27 02:39:42;;;;;;;4.82;1.67;;;14.50;99.90;;;;;;5026563;28;20331;-73
2022/10/27 02:42:08;;;;;;;4.57;1.50;;;14.50;99.90;;;;;;5034552;28;20261;-74
2022/10/27 02:44:33;;;;;;;3.30;1.60;;;14.40;99.90;;;;;;5033925;28;20241;-73
2022/10/27 02:47:01;;;;;;;4.65;1.55;;;14.50;99.90;;;;;;5051575;28;20197;-72
2022/10/27 02:49:27;;;;;;;3.00;1.52;;;14.40;99.90;;;;;;5033636;28;20231;-73
2022/10/27 02:51:54;;;;;;;2.13;1.42;;;14.50;99.90;;;;;;5034028;28;20190;-73
2022/10/27 02:54:20;;;;;;;4.75;1.70;;;14.40;99.90;;;;;;5050695;28;20182;-72
2022/10/27 02:56:48;;;;;;;3.15;1.50;;;14.40;99.90;;;;;;5032923;28;20281;-71
2022/10/27 02:59:16;;;;;;;4.95;1.60;;;14.40;99.90;;;;;;5050081;28;20185;-75
2022/10/27 03:01:42;;;;;;;4.50;1.55;;;14.40;99.90;;;;;;5033731;28;20185;-73
2022/10/27 03:04:08;;;;;;;2.80;1.40;;;14.40;99.90;;;;;;5031384;28;20166;-73
2022/10/27 03:06:36;;;;;;;2.90;1.65;;;14.40;99.90;;;;;;5033781;28;20197;-73
2022/10/27 03:09:02;;;;;;;5.40;1.58;;;14.30;99.90;;;;;;5032038;28;20190;-72
2022/10/27 03:11:27;;;;;;;3.45;1.48;;;14.30;99.90;;;;;;5032125;28;20250;-73
2022/10/27 03:13:56;;;;;;;2.45;1.60;;;14.30;99.90;;;;;;5034583;28;20177;-73
2022/10/27 03:16:21;;;;;;;2.38;1.60;;;14.30;99.90;;;;;;5022168;28;20421;-73
2022/10/27 03:18:47;;;;;;;2.40;1.50;;;14.30;99.90;;;;;;5034333;28;20193;-73
2022/10/27 03:21:15;;;;;;;5.63;1.80;;;14.20;99.90;;;;;;5035376;28;20165;-72
2022/10/27 03:23:43;;;;;;;2.47;1.75;;;14.30;99.90;;;;;;5035879;28;20170;-72
2022/10/27 03:26:09;;;;;;;3.35;1.60;;;14.20;99.90;;;;;;5035035;28;20186;-73
2022/10/27 03:28:36;;;;;;;6.72;4.85;;;14.20;99.90;;;;;;5035025;28;20193;-73
2022/10/27 03:31:03;;;;;;;6.57;4.43;;;14.20;99.90;;;;;;5039335;28;20178;-73
2022/10/27 03:33:31;;;;;;;8.63;6.63;;;14.20;99.90;;;;;;5022944;28;20188;-72
2022/10/27 03:35:56;;;;;;;4.20;3.80;;;14.20;99.90;;;;;;5022820;28;20175;-72
2022/10/27 03:38:22;;;;;;;10.77;7.35;;;14.20;99.90;;;;;;5031913;28;20252;-72
2022/10/27 03:40:50;;;;;;;6.55;4.60;;;14.20;99.90;;;;;;5050427;28;20267;-74
2022/10/27 03:43:15;;;;;;;6.32;4.82;;;14.20;99.90;;;;;;5032256;28;20174;-72
2022/10/27 03:45:44;;;;;;;5.75;2.95;;;14.10;99.90;;;;;;5027919;28;20184;-72
2022/10/27 03:48:11;;;;;;;5.32;2.30;;;14.10;99.90;;;;;;5049090;28;20182;-74
2022/10/27 03:50:43;;;;;;;3.20;2.30;;;14.10;99.90;;;;;;5035188;28;20182;-74
2022/10/27 03:53:14;;;;;;;3.05;2.25;;;14.10;99.90;;;;;;5033719;28;20209;-73
2022/10/27 03:55:40;;;;;;;2.90;2.15;;;14.10;99.90;;;;;;5033716;28;20315;-72
2022/10/27 03:58:07;;;;;;;3.38;2.30;;;14.00;99.90;;;;;;5025163;28;20218;-72
2022/10/27 04:00:35;;;;;;;21.98;15.85;;;14.00;99.90;;;;;;5035788;28;20212;-74
2022/10/27 04:03:00;;;;;;;9.88;7.07;;;14.00;99.90;;;;;;5033537;28;20256;-73
2022/10/27 04:05:26;;;;;;;7.00;4.65;;;14.00;99.90;;;;;;5033845;28;20186;-72
2022/10/27 04:07:51;;;;;;;4.22;3.47;;;14.00;99.90;;;;;;5036736;28;20209;-75
2022/10/27 04:10:17;;;;;;;5.07;3.20;;;14.00;99.90;;;;;;5037328;28;20248;-73
2022/10/27 04:12:50;;;;;;;4.25;2.50;;;13.90;99.90;;;;;;5047817;28;20194;-72
2022/10/27 04:15:17;;;;;;;4.72;2.40;;;13.90;99.90;;;;;;5033064;28;20248;-72
2022/10/27 04:17:43;;;;;;;3.17;2.30;;;13.90;99.90;;;;;;5036403;28;20226;-74
2022/10/27 04:20:12;;;;;;;5.93;2.40;;;13.90;99.90;;;;;;5036670;28;20204;-73
2022/10/27 04:22:37;;;;;;;3.70;1.90;;;13.90;99.90;;;;;;5052847;28;20269;-74
2022/10/27 04:25:03;;;;;;;56.50;37.22;;;13.90;99.90;;;;;;5042696;28;20236;-74
2022/10/27 04:27:31;;;;;;;24.92;17.83;;;13.90;99.90;;;;;;5034651;28;20194;-73
2022/10/27 04:29:59;;;;;;;12.35;8.43;;;13.90;99.90;;;;;;5035149;28;20205;-74
2022/10/27 04:32:24;;;;;;;8.18;5.80;;;13.90;99.90;;;;;;5036234;28;20190;-74
2022/10/27 04:34:50;;;;;;;6.80;4.85;;;13.90;99.90;;;;;;5036154;28;20188;-74
2022/10/27 04:37:16;;;;;;;5.03;3.60;;;13.90;99.90;;;;;;5035990;28;20228;-73
2022/10/27 04:39:44;;;;;;;3.90;2.92;;;13.90;99.90;;;;;;5037060;28;20185;-73
2022/10/27 04:42:12;;;;;;;3.65;2.65;;;14.00;99.90;;;;;;5037317;28;20277;-73
2022/10/27 04:44:40;;;;;;;3.30;2.50;;;13.90;99.90;;;;;;5036438;28;20325;-71
2022/10/27 04:47:06;;;;;;;4.55;3.05;;;13.90;99.90;;;;;;5031045;28;20192;-73
2022/10/27 04:49:34;;;;;;;6.78;4.45;;;13.90;99.90;;;;;;5036741;28;20178;-71
2022/10/27 04:51:59;;;;;;;6.35;3.63;;;13.90;99.90;;;;;;5036360;28;20217;-72
2022/10/27 04:54:25;;;;;;;4.82;2.45;;;13.90;99.90;;;;;;5053550;28;20181;-71
2022/10/27 04:56:53;;;;;;;6.40;2.45;;;13.90;99.90;;;;;;5036039;28;20350;-73
2022/10/27 04:59:19;;;;;;;2.80;2.05;;;13.90;99.90;;;;;;5036359;28;20197;-73
2022/10/27 05:01:46;;;;;;;2.95;2.00;;;13.90;99.90;;;;;;5036527;28;20186;-74
2022/10/27 05:04:21;;;;;;;3.35;2.30;;;13.90;99.90;;;;;;5036178;28;20189;-73
2022/10/27 05:06:47;;;;;;;2.97;2.00;;;13.90;99.90;;;;;;5034381;28;20217;-74
2022/10/27 05:09:15;;;;;;;5.78;1.95;;;13.90;99.90;;;;;;5043524;28;20183;-73
2022/10/27 05:11:40;;;;;;;3.85;1.83;;;13.90;99.90;;;;;;5052365;28;20216;-72
2022/10/27 05:14:06;;;;;;;5.45;1.67;;;13.90;99.90;;;;;;5030907;28;20221;-72
2022/10/27 05:16:36;;;;;;;5.20;1.80;;;13.90;99.90;;;;;;5040245;28;20176;-72
2022/10/27 05:19:02;;;;;;;2.97;1.83;;;13.90;99.90;;;;;;5034431;28;20182;-74
2022/10/27 05:21:31;;;;;;;5.28;1.70;;;13.90;99.90;;;;;;5034150;28;20196;-72
2022/10/27 05:23:57;;;;;;;3.00;1.60;;;13.90;99.90;;;;;;5022531;28;20167;-73
2022/10/27 05:26:23;;;;;;;4.00;2.05;;;13.90;99.90;;;;;;5049615;28;20173;-74
2022/10/27 05:28:48;;;;;;;3.85;1.70;;;13.90;99.90;;;;;;5043298;28;20217;-74
2022/10/27 05:31:14;;;;;;;1.88;1.50;;;13.90;99.90;;;;;;5032824;28;20532;-72
2022/10/27 05:33:45;;;;;;;3.78;1.50;;;13.90;99.90;;;;;;5026602;28;20178;-72
2022/10/27 05:36:12;;;;;;;3.80;1.67;;;13.90;99.90;;;;;;5036006;28;20173;-73
2022/10/27 05:38:43;;;;;;;2.50;1.95;;;13.90;99.90;;;;;;5035912;28;20190;-74
2022/10/27 05:41:09;;;;;;;4.82;1.65;;;13.90;99.90;;;;;;5035583;28;20181;-73
2022/10/27 05:43:35;;;;;;;3.03;1.90;;;14.00;99.90;;;;;;5035852;28;20206;-71
2022/10/27 05:46:00;;;;;;;3.40;1.98;;;14.00;99.90;;;;;;5043923;28;20186;-74
2022/10/27 05:48:26;;;;;;;3.17;1.83;;;14.00;99.90;;;;;;5040734;28;20276;-73
2022/10/27 05:50:57;;;;;;;2.83;1.80;;;13.90;99.90;;;;;;5036399;28;20189;-72
2022/10/27 05:53:25;;;;;;;3.88;1.70;;;14.00;99.90;;;;;;5017678;28;20175;-72
2022/10/27 05:55:54;;;;;;;2.83;1.77;;;14.00;99.90;;;;;;5034346;28;20173;-72
2022/10/27 05:58:20;;;;;;;3.97;1.88;;;13.90;99.90;;;;;;5050071;28;20193;-72
2022/10/27 06:00:48;;;;;;;4.13;1.88;;;14.00;99.90;;;;;;5051328;28;20193;-72
2022/10/27 06:03:25;;;;;;;3.28;2.22;;;13.90;99.90;;;;;;5042741;28;20294;-74
2022/10/27 06:05:52;;;;;;;2.95;2.08;;;14.00;99.90;;;;;;5018022;28;20158;-72
2022/10/27 06:08:18;;;;;;;4.45;2.10;;;14.00;99.90;;;;;;5031562;28;20202;-72
2022/10/27 06:10:47;;;;;;;2.92;2.03;;;13.90;99.90;;;;;;5026576;28;20206;-72
2022/10/27 06:13:13;;;;;;;2.92;2.10;;;13.90;99.90;;;;;;5035204;28;20181;-72
2022/10/27 06:15:42;;;;;;;2.97;1.75;;;14.00;99.90;;;;;;5051704;28;20226;-72
2022/10/27 06:18:09;;;;;;;3.20;2.00;;;14.00;99.90;;;;;;5043404;28;20197;-73
2022/10/27 06:20:35;;;;;;;6.60;2.65;;;14.00;99.90;;;;;;5032051;28;20201;-72
2022/10/27 06:23:01;;;;;;;5.38;1.95;;;14.00;99.90;;;;;;5036369;28;20190;-71
2022/10/27 06:25:26;;;;;;;4.10;1.77;;;14.00;99.90;;;;;;5035010;28;20166;-72
2022/10/27 06:27:52;;;;;;;3.55;1.80;;;14.00;99.90;;;;;;5034223;28;20193;-72
2022/10/27 06:30:17;;;;;;;2.70;1.90;;;14.00;99.90;;;;;;5036265;28;20283;-77
2022/10/27 06:32:43;;;;;;;4.30;2.20;;;14.00;99.90;;;;;;5032258;28;20206;-74
2022/10/27 06:35:09;;;;;;;3.63;2.00;;;14.00;99.90;;;;;;5024712;28;20180;-75
2022/10/27 06:37:39;;;;;;;4.75;2.28;;;14.00;99.90;;;;;;5042427;28;20275;-74
2022/10/27 06:40:06;;;;;;;3.50;2.17;;;14.10;99.90;;;;;;5036119;28;20185;-76
2022/10/27 06:42:35;;;;;;;4.00;2.30;;;14.00;99.90;;;;;;5028034;28;20237;-77
2022/10/27 06:45:01;;;;;;;3.40;2.28;;;14.10;99.90;;;;;;5027682;28;20232;-76
2022/10/27 06:47:26;;;;;;;4.63;2.28;;;14.10;99.90;;;;;;5039528;28;20178;-77
2022/10/27 06:49:55;;;;;;;3.70;1.95;;;14.00;99.90;;;;;;5043250;28;20178;-77
2022/10/27 06:52:20;;;;;;;3.63;2.55;;;14.10;99.90;;;;;;5039920;28;20182;-77
2022/10/27 06:54:46;;;;;;;4.80;2.50;;;14.00;99.90;;;;;;5049241;28;20197;-77
2022/10/27 06:57:12;;;;;;;3.22;2.40;;;14.00;99.90;;;;;;5038429;28;20387;-76
2022/10/27 06:59:37;;;;;;;4.50;2.17;;;14.10;99.90;;;;;;5024341;28;20167;-76
2022/10/27 07:02:05;;;;;;;3.53;2.40;;;14.10;99.90;;;;;;5039093;28;20185;-77
2022/10/27 07:04:31;;;;;;;4.13;2.25;;;14.10;99.90;;;;;;5039883;28;20216;-76
2022/10/27 07:06:59;;;;;;;3.30;2.20;;;14.10;99.90;;;;;;5038912;28;20170;-76
2022/10/27 07:09:25;;;;;;;2.88;2.03;;;14.10;99.90;;;;;;5041794;28;20174;-76
2022/10/27 07:11:55;;;;;;;5.25;2.08;;;14.20;99.90;;;;;;5044904;28;20201;-76
2022/10/27 07:14:20;;;;;;;3.67;1.90;;;14.20;99.90;;;;;;5041593;28;20186;-77
2022/10/27 07:16:48;;;;;;;3.13;2.30;;;14.20;99.90;;;;;;5045385;28;20185;-75
2022/10/27 07:19:16;;;;;;;2.67;1.70;;;14.30;99.90;;;;;;5067426;28;20246;-76
2022/10/27 07:21:41;;;;;;;3.20;2.20;;;14.30;99.90;;;;;;5051044;28;20181;-76
2022/10/27 07:24:10;;;;;;;3.50;2.00;;;14.40;99.90;;;;;;5046644;28;20202;-77
2022/10/27 07:26:35;;;;;;;2.45;1.67;;;14.50;99.90;;;;;;5041218;28;20170;-76
2022/10/27 07:29:01;;;;;;;3.42;2.00;;;14.50;99.90;;;;;;5057227;28;20213;-77
2022/10/27 07:31:29;;;;;;;3.78;2.10;;;14.50;99.90;;;;;;5063438;28;20206;-77
2022/10/27 07:33:54;;;;;;;3.03;2.00;;;14.50;99.90;;;;;;5038738;28;20183;-77
2022/10/27 07:36:20;;;;;;;4.55;2.08;;;14.60;99.90;;;;;;5051610;28;20347;-76
2022/10/27 07:38:48;;;;;;;3.03;1.90;;;14.60;99.90;;;;;;5053528;28;20197;-77
2022/10/27 07:41:14;;;;;;;3.47;2.05;;;14.70;99.90;;;;;;5065999;28;20304;-76
2022/10/27 07:43:39;;;;;;;3.28;2.00;;;14.70;99.90;;;;;;5053703;28;20198;-76
2022/10/27 07:46:05;;;;;;;3.53;1.70;;;14.80;99.90;;;;;;5054806;28;20181;-76
2022/10/27 07:48:31;;;;;;;3.67;2.00;;;14.80;99.90;;;;;;5050812;28;20265;-76
2022/10/27 07:50:59;;;;;;;3.38;1.90;;;14.90;99.90;;;;;;5048417;28;20256;-78
2022/10/27 07:53:26;;;;;;;3.05;1.90;;;14.90;99.90;;;;;;5045455;28;20168;-76
2022/10/27 07:55:55;;;;;;;2.72;2.20;;;15.00;99.90;;;;;;5063358;28;20265;-76
2022/10/27 07:58:23;;;;;;;3.15;2.00;;;15.00;99.90;;;;;;5048235;28;20220;-76
2022/10/27 08:00:56;;;;;;;2.92;1.90;;;15.00;99.90;;;;;;5068426;28;20186;-77
2022/10/27 08:03:25;;;;;;;3.58;2.00;;;15.20;99.90;;;;;;5052909;28;20182;-77
2022/10/27 08:05:50;;;;;;;3.72;2.00;;;15.20;99.90;;;;;;5055787;28;20212;-77
2022/10/27 08:08:17;;;;;;;3.47;2.00;;;15.30;99.90;;;;;;5064217;28;20250;-77
2022/10/27 08:10:44;;;;;;;4.75;2.35;;;15.40;99.90;;;;;;5036631;28;20201;-76
2022/10/27 08:13:10;;;;;;;2.97;1.63;;;15.50;99.90;;;;;;5032796;28;20534;-76
2022/10/27 08:15:38;;;;;;;4.28;1.60;;;15.50;99.90;;;;;;5048481;28;20270;-77
2022/10/27 08:18:04;;;;;;;2.60;1.40;;;15.60;99.90;;;;;;5045905;28;20202;-76
2022/10/27 08:20:33;;;;;;;3.65;1.80;;;15.70;99.90;;;;;;5049446;28;20174;-74
2022/10/27 08:23:08;;;;;;;3.10;1.83;;;15.80;99.90;;;;;;5042087;28;20238;-75
2022/10/27 08:26:07;;;;;;;3.08;1.48;;;15.90;99.90;;;;;;5050566;28;20244;-75
2022/10/27 08:28:42;;;;;;;2.80;1.55;;;16.00;99.90;;;;;;5042757;28;20183;-74
2022/10/27 08:31:10;;;;;;;2.08;1.35;;;16.10;99.90;;;;;;5039839;28;20214;-74
2022/10/27 08:33:36;;;;;;;3.17;1.60;;;16.30;99.90;;;;;;5046306;28;20207;-75
2022/10/27 08:36:02;;;;;;;3.95;1.90;;;16.30;99.90;;;;;;5068979;28;20217;-76
2022/10/27 08:38:32;;;;;;;3.80;1.50;;;16.50;99.90;;;;;;5068620;28;20198;-77
2022/10/27 08:41:11;;;;;;;2.33;1.40;;;16.60;99.90;;;;;;5065586;28;20182;-77
2022/10/27 08:44:14;;;;;;;2.10;1.30;;;16.70;99.90;;;;;;5057967;28;20300;-77
2022/10/27 08:46:57;;;;;;;4.72;1.65;;;16.80;99.90;;;;;;5046614;28;20177;-77
2022/10/27 08:50:10;;;;;;;2.22;1.50;;;17.00;99.90;;;;;;5065107;28;20174;-76
2022/10/27 08:53:01;;;;;;;2.08;1.30;;;17.10;99.90;;;;;;4989185;28;20270;-76
2022/10/27 08:55:51;;;;;;;2.60;1.27;;;17.20;99.90;;;;;;4991293;28;20314;-77
2022/10/27 08:58:39;;;;;;;1.92;1.40;;;17.50;99.90;;;;;;5039507;28;20240;-77
2022/10/27 09:01:08;;;;;;;1.85;1.33;;;18.00;99.90;;;;;;5044921;28;20170;-77
2022/10/27 09:04:02;;;;;;;1.33;1.00;;;18.80;99.90;;;;;;5051556;28;20178;-77
2022/10/27 09:06:50;;;;;;;2.45;1.40;;;19.50;99.90;;;;;;5047210;28;20204;-77
2022/10/27 09:09:53;;;;;;;2.80;1.35;;;20.20;99.90;;;;;;5049541;28;20193;-76
2022/10/27 09:12:49;;;;;;;3.80;1.40;;;20.90;99.90;;;;;;5047628;28;20190;-78
2022/10/27 09:15:41;;;;;;;2.55;1.27;;;21.40;99.90;;;;;;5045073;28;20232;-76
2022/10/27 09:18:24;;;;;;;3.58;1.65;;;21.80;99.90;;;;;;5063664;28;20292;-76
2022/10/27 09:20:56;;;;;;;2.83;1.50;;;22.10;99.90;;;;;;5047704;28;20178;-76
2022/10/27 09:23:36;;;;;;;3.15;1.58;;;22.40;99.90;;;;;;5051504;28;20265;-79
2022/10/27 09:26:07;;;;;;;2.33;1.45;;;22.60;99.90;;;;;;5050036;28;20214;-77
2022/10/27 09:28:45;;;;;;;3.03;1.60;;;22.80;99.90;;;;;;5049964;28;20169;-77
2022/10/27 09:31:37;;;;;;;2.60;1.40;;;22.90;99.90;;;;;;5054109;28;20198;-76
2022/10/27 09:34:32;;;;;;;4.97;1.80;;;23.10;99.90;;;;;;5049969;28;20177;-77
2022/10/27 09:36:58;;;;;;;2.72;1.60;;;23.20;99.90;;;;;;5056034;28;20186;-76
2022/10/27 09:39:26;;;;;;;3.20;1.60;;;23.30;99.90;;;;;;5051346;28;20199;-75
2022/10/27 09:41:55;;;;;;;2.80;1.40;;;23.30;99.90;;;;;;5042335;28;20177;-76
2022/10/27 09:44:23;;;;;;;2.95;1.27;;;23.30;99.90;;;;;;5056491;28;20214;-77
2022/10/27 09:46:56;;;;;;;2.88;1.40;;;23.40;99.90;;;;;;5062702;28;20183;-78
2022/10/27 09:49:29;;;;;;;3.40;1.55;;;23.50;99.90;;;;;;5037130;28;20185;-77
2022/10/27 09:52:09;;;;;;;3.08;1.30;;;23.60;99.90;;;;;;5046021;28;20443;-78
2022/10/27 09:54:41;;;;;;;3.42;1.73;;;23.50;99.90;;;;;;5033084;28;20178;-78
2022/10/27 09:57:19;;;;;;;3.40;1.65;;;23.40;99.90;;;;;;5056603;28;20237;-78
2022/10/27 10:00:09;;;;;;;3.53;1.70;;;23.40;99.90;;;;;;5067269;28;20213;-78
2022/10/27 10:02:38;;;;;;;4.05;1.73;;;23.30;99.90;;;;;;5053191;28;20209;-77
2022/10/27 10:05:24;;;;;;;3.42;1.30;;;23.20;99.90;;;;;;5060241;28;20170;-77
2022/10/27 10:08:09;;;;;;;4.78;1.33;;;23.20;99.90;;;;;;5063122;28;20209;-76
2022/10/27 10:10:39;;;;;;;1.85;1.25;;;23.30;99.90;;;;;;5047404;28;20209;-79
2022/10/27 10:13:23;;;;;;;2.67;1.50;;;23.30;99.90;;;;;;5050822;28;20226;-77
2022/10/27 10:16:05;;;;;;;2.00;1.30;;;23.30;99.90;;;;;;5071984;28;20268;-77
2022/10/27 10:18:35;;;;;;;4.03;1.45;;;23.40;99.90;;;;;;5059430;28;20201;-77
2022/10/27 10:21:03;;;;;;;3.60;1.27;;;23.40;99.90;;;;;;5048446;28;20185;-79
2022/10/27 10:23:35;;;;;;;2.97;1.60;;;23.40;99.90;;;;;;5052475;28;20281;-77
2022/10/27 10:26:16;;;;;;;2.63;1.55;;;23.40;99.90;;;;;;5051955;28;20192;-77
2022/10/27 10:28:49;;;;;;;2.38;1.40;;;23.30;99.90;;;;;;5052091;28;20201;-78
2022/10/27 10:31:24;;;;;;;1.70;1.15;;;23.30;99.90;;;;;;5052787;28;20228;-78
2022/10/27 10:33:51;;;;;;;3.30;1.65;;;23.40;99.90;;;;;;5048278;28;20173;-77
2022/10/27 10:36:23;;;;;;;3.08;1.42;;;23.40;99.90;;;;;;5048693;28;20245;-76
2022/10/27 10:38:57;;;;;;;2.53;1.50;;;23.50;99.90;;;;;;5040458;28;20197;-78
2022/10/27 10:41:24;;;;;;;3.03;1.60;;;23.50;99.90;;;;;;5054388;28;20162;-78
2022/10/27 10:44:14;;;;;;;1.50;1.10;;;23.50;99.90;;;;;;5058807;28;20461;-77
2022/10/27 10:46:53;;;;;;;2.47;1.38;;;23.60;99.90;;;;;;5059198;28;20178;-77
2022/10/27 10:49:36;;;;;;;2.67;1.58;;;23.60;99.90;;;;;;5032125;28;20192;-74
2022/10/27 10:52:21;;;;;;;4.20;1.48;;;23.60;99.90;;;;;;5061248;28;20199;-76
2022/10/27 10:54:50;;;;;;;3.28;1.30;;;23.70;99.90;;;;;;5043964;28;20208;-75
2022/10/27 10:57:22;;;;;;;4.25;1.55;;;23.70;99.90;;;;;;5048641;28;20260;-75
2022/10/27 11:00:02;;;;;;;2.30;1.50;;;23.70;99.90;;;;;;5045473;28;20196;-76
2022/10/27 11:02:30;;;;;;;2.30;1.50;;;23.80;99.90;;;;;;5042538;28;20170;-77
2022/10/27 11:05:09;;;;;;;4.22;1.60;;;23.80;99.90;;;;;;5043880;28;20174;-76
2022/10/27 11:07:38;;;;;;;3.42;1.40;;;23.80;99.90;;;;;;5035268;28;20167;-76
2022/10/27 11:10:19;;;;;;;3.15;1.60;;;23.70;99.90;;;;;;5044073;28;20198;-76
2022/10/27 11:13:10;;;;;;;3.08;1.67;;;23.70;99.90;;;;;;5049647;28;20170;-76
2022/10/27 11:15:57;;;;;;;2.13;1.30;;;23.70;99.90;;;;;;5030302;28;20181;-76
2022/10/27 11:18:43;;;;;;;2.88;1.35;;;23.70;99.90;;;;;;5042111;28;20225;-76
2022/10/27 11:21:28;;;;;;;2.67;1.58;;;23.80;99.90;;;;;;5060684;28;20180;-75
2022/10/27 11:24:02;;;;;;;2.85;1.70;;;23.80;99.90;;;;;;5052847;28;20194;-77
2022/10/27 11:26:36;;;;;;;2.40;1.70;;;23.80;99.90;;;;;;5058051;28;20188;-77
2022/10/27 11:29:20;;;;;;;3.22;1.80;;;23.80;99.90;;;;;;5072117;28;20292;-76
2022/10/27 11:32:08;;;;;;;2.25;1.75;;;23.80;99.90;;;;;;5053669;28;20208;-77
2022/10/27 11:35:08;;;;;;;2.47;1.77;;;23.80;99.90;;;;;;5061924;28;20162;-78
2022/10/27 11:38:11;;;;;;;2.33;1.73;;;23.80;99.90;;;;;;5048081;28;20289;-79
2022/10/27 11:40:56;;;;;;;2.50;1.60;;;23.80;99.90;;;;;;5008332;28;20186;-78
2022/10/27 11:43:50;;;;;;;2.53;1.58;;;23.80;99.90;;;;;;5018014;28;20259;-77
2022/10/27 11:46:21;;;;;;;3.55;1.85;;;23.90;99.90;;;;;;5018342;28;20185;-77
2022/10/27 11:49:00;;;;;;;1.98;1.52;;;23.90;99.90;;;;;;5025002;28;20165;-77
2022/10/27 11:51:54;;;;;;;2.47;1.60;;;24.00;99.90;;;;;;5036187;28;20166;-78
2022/10/27 11:54:20;;;;;;;2.33;1.65;;;24.10;99.90;;;;;;5033099;28;20385;-77
2022/10/27 11:57:32;;;;;;;3.08;1.73;;;24.20;99.90;;;;;;5042950;28;20402;-78
2022/10/27 12:00:13;;;;;;;1.98;1.42;;;24.30;99.90;;;;;;4989590;28;20172;-78
2022/10/27 12:02:54;;;;;;;3.53;1.60;;;24.30;99.90;;;;;;4997104;28;20245;-77
2022/10/27 12:05:29;;;;;;;1.55;1.23;;;24.30;99.90;;;;;;5053784;28;20185;-79
2022/10/27 12:08:20;;;;;;;3.30;1.60;;;24.30;99.90;;;;;;5036400;28;20188;-79
2022/10/27 12:11:10;;;;;;;3.70;1.70;;;24.40;99.90;;;;;;5036997;28;20202;-77
2022/10/27 12:14:06;;;;;;;4.20;1.60;;;24.40;99.90;;;;;;5031539;28;20206;-75
2022/10/27 12:17:14;;;;;;;2.40;1.60;;;24.30;99.90;;;;;;5028419;28;20205;-77
2022/10/27 12:19:46;;;;;;;3.75;1.92;;;24.40;99.90;;;;;;5035584;28;20200;-76
2022/10/27 12:22:21;;;;;;;3.78;1.77;;;24.40;99.90;;;;;;5020718;28;20200;-79
2022/10/27 12:25:05;;;;;;;4.00;1.77;;;24.50;99.90;;;;;;5047180;28;20169;-78
2022/10/27 12:27:53;;;;;;;2.67;1.70;;;24.50;99.90;;;;;;5048802;28;20207;-77
2022/10/27 12:30:21;;;;;;;3.22;1.67;;;24.60;99.90;;;;;;5043018;28;20178;-78
2022/10/27 12:33:08;;;;;;;3.50;1.80;;;24.70;99.90;;;;;;5058868;28;20223;-78
2022/10/27 12:35:49;;;;;;;2.95;1.52;;;24.70;99.90;;;;;;5037768;28;20216;-79
2022/10/27 12:38:26;;;;;;;3.55;2.10;;;24.90;99.90;;;;;;5033286;28;20202;-79
2022/10/27 12:41:08;;;;;;;3.15;1.70;;;24.90;99.90;;;;;;5036770;28;20173;-78
2022/10/27 12:43:59;;;;;;;3.58;2.20;;;25.00;99.90;;;;;;5044807;28;20200;-78
2022/10/27 12:46:50;;;;;;;3.88;1.90;;;25.10;99.90;;;;;;5042251;28;20174;-79
2022/10/27 12:49:28;;;;;;;4.95;1.70;;;25.10;99.90;;;;;;5057430;28;20283;-79
2022/10/27 12:52:20;;;;;;;2.58;1.63;;;25.10;99.90;;;;;;5034658;28;20200;-79
2022/10/27 12:55:23;;;;;;;3.58;1.65;;;25.20;99.90;;;;;;5038555;28;20174;-78
2022/10/27 12:57:49;;;;;;;2.65;1.60;;;25.20;99.90;;;;;;5047335;28;20189;-80
2022/10/27 13:00:20;;;;;;;4.35;1.98;;;25.30;99.90;;;;;;5058202;28;20263;-77
2022/10/27 13:03:00;;;;;;;4.88;1.73;;;25.30;99.90;;;;;;5035958;28;20270;-80
2022/10/27 13:05:37;;;;;;;5.93;2.10;;;25.40;99.90;;;;;;5050670;28;20166;-78
2022/10/27 13:08:22;;;;;;;3.28;1.60;;;25.50;99.90;;;;;;5040141;28;20273;-78
2022/10/27 13:11:14;;;;;;;2.95;1.95;;;25.50;99.90;;;;;;5031489;28;20174;-78
2022/10/27 13:13:49;;;;;;;2.47;1.67;;;25.50;99.90;;;;;;5036331;28;20255;-79
2022/10/27 13:16:50;;;;;;;3.25;1.70;;;25.60;99.90;;;;;;5039229;28;20173;-79